CPX771 Details

Departure: Liège Airport (EBLG)
Arrival: Tallinn Airport (EETN)
Route: LNO5E LNO M170 NVO UZ706 PIXID GESKA P605 MALIV M611 KOLJA M611 LONSA


Current Weather Information
EBLG 212320Z 30004KT 270V340 7000 SCT008 BKN009 10/08 Q1019 NOSIG
EETN 212320Z 09003KT CAVOK 15/12 Q1010